Luzern, Switzerland
Current Conditions -  °F | °C
As of 2:50 AM on Tuesday 25 Nov 2014 (Local Time) from LSME Reporting Station
Haze Haze  
Wind Chill: 45°   Ceiling: 11000
Heat Index: 45°   Visibility: 3mi
Dew Point: 45°   Wind: 1mph
Humidity: 100%   Direction: 30°NNE
Pressure: 30.18"   Gusts: NA
Location:  47.06°N, 8.3°E
Report Text: LSME 250150Z AUTO 03001KT 5000NDV BR SCT008 BKN110 BKN150 07/07 Q1022 RMK GRN
Loading
Personal Weather Stations






























Interactive Weather Map New forecast layout! Learn more

10-Day Weather Forecast

Advertisements
Track Severe Weather on mobile